Terminal Aerodrome Forecast
Issued by NWS Corpus Christi, TX

Home | Current Version | Previous Version | Text Only | Print | Product List | Glossary On
Versions: 1 2 3 4 5 6 7 8 9 10 11 12 13 14 15 16 17 18 19 20
000
FTUS44 KCRP 240536
TAFVCT
TAF
KVCT 240536Z 2406/2506 15012G18KT P6SM SCT020 BKN250
     FM240900 16010KT P6SM BKN018 OVC250 WS020/17040KT
     FM241500 17015G22KT P6SM VCSH BKN020 OVC050
      TEMPO 2415/2419 4SM SHRA OVC020
     FM241900 17020G29KT P6SM VCTS BKN025CB BKN100
      TEMPO 2419/2423 VRB25G35KT 3SM TSRA BKN030CB OVC150
     FM250100 17014KT P6SM SCT040 SCT100=

USA.gov is the U.S. government's official web portal to all federal, state and local government web resources and services.